createdAt,value
2023-01-25T00:01:29.435Z,-1.20
2023-01-25T04:19:17.266Z,-1.50
2023-01-25T04:22:03.363Z,-1.50
2023-01-25T04:24:48.815Z,-1.50
2023-01-25T04:27:34.115Z,-1.60
2023-01-25T04:30:20.086Z,-1.60
2023-01-25T04:33:05.889Z,-1.60
2023-01-25T04:35:51.471Z,-1.50
2023-01-25T04:38:36.845Z,-1.50
2023-01-25T04:41:22.202Z,-1.50
2023-01-25T04:44:07.700Z,-1.50
2023-01-25T04:46:53.086Z,-1.50
2023-01-25T04:49:38.637Z,-1.60
2023-01-25T04:52:24.094Z,-1.60
2023-01-25T04:55:10.095Z,-1.60
2023-01-25T04:57:56.053Z,-1.60
2023-01-25T05:00:41.543Z,-1.60
2023-01-25T05:03:27.740Z,-1.60
2023-01-25T05:06:13.145Z,-1.60
2023-01-25T05:08:58.488Z,-1.60
2023-01-25T05:11:43.819Z,-1.70
2023-01-25T05:14:29.207Z,-1.70
2023-01-25T05:17:14.818Z,-1.60
2023-01-25T05:20:00.173Z,-1.60
2023-01-25T05:22:46.146Z,-1.60
2023-01-25T05:25:31.605Z,-1.60
2023-01-25T05:28:17.108Z,-1.60
2023-01-25T05:31:06.558Z,-1.60
2023-01-25T05:33:52.277Z,-1.60
2023-01-25T05:36:37.753Z,-1.60
2023-01-25T05:39:23.556Z,-1.60
2023-01-25T05:42:18.568Z,-1.60
2023-01-25T05:45:05.059Z,-1.60
2023-01-25T05:47:55.792Z,-1.60
2023-01-25T05:50:41.351Z,-1.60
2023-01-25T05:53:28.007Z,-1.60
2023-01-25T05:56:13.427Z,-1.60
2023-01-25T05:59:01.587Z,-1.60
2023-01-25T06:01:47.454Z,-1.60
2023-01-25T06:04:33.064Z,-1.60
2023-01-25T06:07:18.424Z,-1.60
2023-01-25T06:10:05.639Z,-1.60
2023-01-25T06:12:51.107Z,-1.60
2023-01-25T06:15:37.067Z,-1.60
2023-01-25T06:18:24.037Z,-1.60
2023-01-25T06:21:10.389Z,-1.60
2023-01-25T06:23:55.946Z,-1.60
2023-01-25T06:26:41.380Z,-1.50
2023-01-25T06:29:29.267Z,-1.50
2023-01-25T06:32:14.870Z,-1.50
2023-01-25T06:35:00.786Z,-1.50
2023-01-25T06:37:46.568Z,-1.60
2023-01-25T06:40:32.534Z,-1.50
2023-01-25T06:43:18.243Z,-1.50
2023-01-25T06:46:08.888Z,-1.50
2023-01-25T06:48:54.472Z,-1.50
2023-01-25T06:51:39.943Z,-1.40
2023-01-25T06:54:25.462Z,-1.50
2023-01-25T06:57:10.965Z,-1.50
2023-01-25T06:59:56.432Z,-1.50
2023-01-25T07:02:42.381Z,-1.50
2023-01-25T07:05:27.616Z,-1.50
2023-01-25T07:08:13.034Z,-1.50
2023-01-25T07:11:03.145Z,-1.50
2023-01-25T07:13:48.802Z,-1.50
2023-01-25T07:16:34.085Z,-1.60
2023-01-25T07:19:19.513Z,-1.60
2023-01-25T07:22:04.990Z,-1.70
2023-01-25T07:24:51.453Z,-1.70
2023-01-25T07:27:37.090Z,-1.70
2023-01-25T07:30:22.499Z,-1.70
2023-01-25T07:33:09.039Z,-1.70
2023-01-25T07:35:54.388Z,-1.60
2023-01-25T12:18:30.638Z,-1.30
2023-01-25T12:21:57.422Z,-1.30
2023-01-25T12:24:56.451Z,-1.40
2023-01-25T12:28:12.255Z,-1.50
2023-01-25T12:31:25.087Z,-1.50
2023-01-25T12:34:27.604Z,-1.40
2023-01-25T12:37:28.483Z,-1.40
2023-01-25T12:40:53.798Z,-1.40
2023-01-25T12:44:06.718Z,-1.40
2023-01-25T12:47:23.744Z,-1.30
2023-01-25T12:50:53.333Z,-1.20
2023-01-25T12:53:48.310Z,-1.20
2023-01-25T12:57:01.055Z,-1.20
2023-01-25T13:00:02.755Z,-1.20
2023-01-25T13:03:26.991Z,-1.30
2023-01-25T13:07:12.010Z,-1.30
2023-01-25T13:10:30.968Z,-1.30
2023-01-25T13:13:27.811Z,-1.30
2023-01-25T13:16:28.729Z,-1.30
2023-01-25T13:19:44.250Z,-1.30
2023-01-25T13:22:59.007Z,-1.30
2023-01-25T13:25:44.467Z,-1.30
2023-01-25T13:28:44.495Z,-1.30
2023-01-25T13:31:50.889Z,-1.30
2023-01-25T13:34:57.697Z,-1.30
2023-01-25T13:37:43.548Z,-1.30
2023-01-25T13:40:37.882Z,-1.30
2023-01-25T13:43:23.436Z,-1.40
2023-01-25T13:46:15.780Z,-1.40
2023-01-25T13:49:04.818Z,-1.50
2023-01-25T13:51:50.432Z,-1.50
2023-01-25T13:54:48.203Z,-1.60
2023-01-25T13:57:33.838Z,-1.50
2023-01-25T14:00:20.391Z,-1.50
2023-01-25T14:03:06.357Z,-1.50
2023-01-25T14:05:56.216Z,-1.50
2023-01-25T14:08:44.642Z,-1.40
2023-01-25T14:11:32.331Z,-1.50
2023-01-25T14:14:33.965Z,-1.50
2023-01-25T14:17:24.402Z,-1.50
2023-01-25T14:20:21.473Z,-1.50
2023-01-25T14:23:30.032Z,-1.50
2023-01-25T14:26:24.823Z,-1.50
2023-01-25T14:29:35.931Z,-1.50
2023-01-25T14:32:25.432Z,-1.50
2023-01-25T14:35:58.529Z,-1.50
2023-01-25T14:38:48.588Z,-1.50
2023-01-25T14:41:40.145Z,-1.60
2023-01-25T14:44:29.133Z,-1.50
2023-01-25T14:47:31.403Z,-1.50
2023-01-25T14:50:40.390Z,-1.60
2023-01-25T14:53:26.271Z,-1.60
2023-01-25T14:56:41.000Z,-1.60
2023-01-25T14:59:38.208Z,-1.70
2023-01-25T15:02:41.166Z,-1.70
2023-01-25T15:05:45.381Z,-1.70
2023-01-25T15:08:38.621Z,-1.70
2023-01-25T15:11:34.667Z,-1.70
2023-01-25T15:14:22.105Z,-1.70
2023-01-25T15:17:46.366Z,-1.60
2023-01-25T15:20:32.740Z,-1.60
2023-01-25T15:23:24.911Z,-1.60
2023-01-25T15:26:25.225Z,-1.60
2023-01-25T15:29:25.648Z,-1.60
2023-01-25T15:32:20.547Z,-1.60
2023-01-25T15:35:15.157Z,-1.60
2023-01-25T15:38:00.886Z,-1.50
2023-01-25T15:40:46.710Z,-1.50
2023-01-25T15:43:32.265Z,-1.50
2023-01-25T15:46:27.438Z,-1.50
2023-01-25T15:49:27.835Z,-1.50
2023-01-25T20:14:41.438Z,-1.80
2023-01-25T20:17:27.175Z,-1.80
2023-01-25T20:20:12.667Z,-1.80
2023-01-25T20:22:58.189Z,-1.80
2023-01-25T20:25:43.719Z,-1.80
2023-01-25T20:28:33.394Z,-1.70
2023-01-25T20:31:31.325Z,-1.70
2023-01-25T20:34:21.378Z,-1.70
2023-01-25T20:37:06.839Z,-1.70
2023-01-25T20:39:52.250Z,-1.70
2023-01-25T20:42:37.646Z,-1.70
2023-01-25T20:45:23.090Z,-1.70
2023-01-25T20:48:08.582Z,-1.70
2023-01-25T20:51:02.682Z,-1.70
2023-01-25T20:53:50.590Z,-1.70
2023-01-25T20:56:36.208Z,-1.70
2023-01-25T20:59:21.610Z,-1.80
2023-01-25T21:02:09.705Z,-1.70
2023-01-25T21:04:55.184Z,-1.70
2023-01-25T21:07:40.565Z,-1.70
2023-01-25T21:10:26.121Z,-1.70
2023-01-25T21:13:11.549Z,-1.70
2023-01-25T21:16:18.620Z,-1.80
2023-01-25T21:19:06.676Z,-1.80
2023-01-25T21:21:52.065Z,-1.80
2023-01-25T21:24:37.372Z,-1.80
2023-01-25T21:27:22.967Z,-1.80
2023-01-25T21:30:09.791Z,-1.80
2023-01-25T21:32:55.518Z,-1.80
2023-01-25T21:35:41.037Z,-1.80
2023-01-25T21:38:26.349Z,-1.80
2023-01-25T21:41:20.306Z,-1.90
2023-01-25T21:44:05.933Z,-1.90
2023-01-25T21:47:19.746Z,-1.90
2023-01-25T21:49:57.295Z,-1.90
2023-01-25T21:52:42.746Z,-1.80
